Time,TemperatureF,DewpointF,PressureIn,WindDirection,WindDirectionDegrees,WindSpeedMPH,WindSpeedGustMPH,Humidity,HourlyPrecipIn,Conditions,Clouds,dailyrainin,SolarRadiationWatts/m^2,SoftwareType,DateUTC
2013-07-08 00:02:00,59.0,53.5,29.98,NNW,328,0.0,5.0,82,0.00,,,0.00,0,Wunderground v.1.15,2013-07-08 07:02:00,
2013-07-08 00:08:00,58.9,53.7,29.99,NNW,328,0.0,5.0,83,0.00,,,0.00,0,Wunderground v.1.15,2013-07-08 07:08:00,
2013-07-08 00:13:00,59.0,53.8,29.99,NNW,328,0.0,1.0,83,0.00,,,0.00,0,Wunderground v.1.15,2013-07-08 07:13:00,
2013-07-08 00:18:00,59.1,53.9,29.99,NNW,328,0.0,2.0,83,0.00,,,0.00,0,Wunderground v.1.15,2013-07-08 07:18:00,
2013-07-08 00:23:00,59.1,53.9,29.99,NNW,328,0.0,0.0,83,0.00,,,0.00,0,Wunderground v.1.15,2013-07-08 07:23:00,
2013-07-08 00:29:00,59.0,53.8,29.99,NNW,328,0.0,0.0,83,0.00,,,0.00,0,Wunderground v.1.15,2013-07-08 07:29:00,
2013-07-08 00:34:00,58.9,53.7,29.99,NNW,328,0.0,0.0,83,0.00,,,0.00,0,Wunderground v.1.15,2013-07-08 07:34:00,
2013-07-08 00:40:00,58.8,53.6,29.99,NNW,328,0.0,0.0,83,0.00,,,0.00,0,Wunderground v.1.15,2013-07-08 07:40:00,
2013-07-08 00:46:00,58.6,53.8,29.99,NNW,328,0.0,0.0,84,0.00,,,0.00,0,Wunderground v.1.15,2013-07-08 07:46:00,
2013-07-08 00:52:00,58.4,53.6,29.99,NNW,328,0.0,0.0,84,0.00,,,0.00,0,Wunderground v.1.15,2013-07-08 07:52:00,
2013-07-08 00:58:00,58.2,53.7,29.99,NNW,328,0.0,0.0,85,0.00,,,0.00,0,Wunderground v.1.15,2013-07-08 07:58:00,
2013-07-08 01:03:00,58.0,53.5,29.99,NNW,328,0.0,1.0,85,0.00,,,0.00,0,Wunderground v.1.15,2013-07-08 08:03:00,
2013-07-08 01:09:00,57.7,53.5,29.99,NNW,328,0.0,1.0,86,0.00,,,0.00,0,Wunderground v.1.15,2013-07-08 08:09:00,
2013-07-08 01:15:00,57.5,53.3,29.99,NNW,328,0.0,0.0,86,0.00,,,0.00,0,Wunderground v.1.15,2013-07-08 08:15:00,
2013-07-08 01:20:00,57.4,53.6,29.99,NNW,328,0.0,0.0,87,0.00,,,0.00,0,Wunderground v.1.15,2013-07-08 08:20:00,
2013-07-08 01:25:00,57.3,53.5,29.99,NNW,328,0.0,0.0,87,0.00,,,0.00,0,Wunderground v.1.15,2013-07-08 08:25:00,
2013-07-08 01:31:00,57.1,53.6,29.99,NNW,328,0.0,0.0,88,0.00,,,0.00,0,Wunderground v.1.15,2013-07-08 08:31:00,
2013-07-08 01:36:00,56.9,53.4,29.99,NNW,328,0.0,0.0,88,0.00,,,0.00,0,Wunderground v.1.15,2013-07-08 08:36:00,
2013-07-08 01:42:00,56.8,53.3,30.00,NNW,328,0.0,0.0,88,0.00,,,0.00,0,Wunderground v.1.15,2013-07-08 08:42:00,
2013-07-08 01:47:00,56.7,53.5,30.00,NNW,328,0.0,0.0,89,0.00,,,0.00,0,Wunderground v.1.15,2013-07-08 08:47:00,
2013-07-08 01:53:00,56.5,53.3,30.00,NNW,328,0.0,0.0,89,0.00,,,0.00,0,Wunderground v.1.15,2013-07-08 08:53:00,
2013-07-08 01:59:00,56.4,53.2,30.00,NNW,328,0.0,0.0,89,0.00,,,0.00,0,Wunderground v.1.15,2013-07-08 08:59:00,
2013-07-08 02:04:00,56.3,53.4,30.00,NNW,328,0.0,0.0,90,0.00,,,0.00,0,Wunderground v.1.15,2013-07-08 09:04:00,
2013-07-08 02:10:00,56.1,53.2,30.00,NNW,328,0.0,0.0,90,0.00,,,0.00,0,Wunderground v.1.15,2013-07-08 09:10:00,
2013-07-08 02:16:00,56.0,53.4,30.00,NNW,328,0.0,0.0,91,0.00,,,0.00,0,Wunderground v.1.15,2013-07-08 09:16:00,
2013-07-08 02:22:00,55.9,53.3,30.00,NNW,328,0.0,1.0,91,0.00,,,0.00,0,Wunderground v.1.15,2013-07-08 09:22:00,
2013-07-08 02:28:00,55.8,53.2,30.00,NNW,328,0.0,1.0,91,0.00,,,0.00,0,Wunderground v.1.15,2013-07-08 09:28:00,
2013-07-08 02:34:00,55.8,53.2,30.01,NNW,328,0.0,0.0,91,0.00,,,0.00,0,Wunderground v.1.15,2013-07-08 09:34:00,
2013-07-08 02:39:00,55.8,53.2,30.00,NNW,328,0.0,0.0,91,0.00,,,0.00,0,Wunderground v.1.15,2013-07-08 09:39:00,
2013-07-08 02:45:00,55.9,53.3,30.00,NNW,328,0.0,0.0,91,0.00,,,0.00,0,Wunderground v.1.15,2013-07-08 09:45:00,
2013-07-08 02:50:00,55.9,53.3,30.01,NNW,328,0.0,0.0,91,0.00,,,0.00,0,Wunderground v.1.15,2013-07-08 09:50:00,
2013-07-08 02:56:00,55.9,53.3,30.00,NNW,328,0.0,0.0,91,0.00,,,0.00,0,Wunderground v.1.15,2013-07-08 09:56:00,
2013-07-08 03:01:00,55.9,53.3,30.01,NNW,328,0.0,0.0,91,0.00,,,0.00,0,Wunderground v.1.15,2013-07-08 10:01:00,
2013-07-08 03:06:00,55.8,52.9,30.01,NNW,328,0.0,0.0,90,0.00,,,0.00,0,Wunderground v.1.15,2013-07-08 10:06:00,
2013-07-08 03:12:00,55.7,52.8,30.01,NNW,328,0.0,0.0,90,0.00,,,0.00,0,Wunderground v.1.15,2013-07-08 10:12:00,
2013-07-08 03:18:00,55.6,53.0,30.01,NNW,328,0.0,0.0,91,0.00,,,0.00,0,Wunderground v.1.15,2013-07-08 10:18:00,
2013-07-08 03:23:00,55.5,52.9,30.01,NNW,328,0.0,0.0,91,0.00,,,0.00,0,Wunderground v.1.15,2013-07-08 10:23:00,
2013-07-08 03:29:00,55.4,52.8,30.01,NNW,328,0.0,0.0,91,0.00,,,0.00,0,Wunderground v.1.15,2013-07-08 10:29:00,
2013-07-08 03:35:00,55.3,53.0,30.01,NNW,328,0.0,0.0,92,0.00,,,0.00,0,Wunderground v.1.15,2013-07-08 10:35:00,
2013-07-08 03:40:00,55.2,52.9,30.01,NNW,328,0.0,0.0,92,0.00,,,0.00,0,Wunderground v.1.15,2013-07-08 10:40:00,
2013-07-08 03:46:00,55.1,52.8,30.01,NNW,328,0.0,0.0,92,0.00,,,0.00,0,Wunderground v.1.15,2013-07-08 10:46:00,
2013-07-08 03:52:00,55.1,52.8,30.01,NNW,328,0.0,0.0,92,0.00,,,0.00,0,Wunderground v.1.15,2013-07-08 10:52:00,
2013-07-08 03:58:00,55.2,52.9,30.01,NNW,328,0.0,0.0,92,0.00,,,0.00,0,Wunderground v.1.15,2013-07-08 10:58:00,
2013-07-08 04:04:00,55.1,52.8,30.01,NNW,328,0.0,0.0,92,0.00,,,0.00,0,Wunderground v.1.15,2013-07-08 11:04:00,
2013-07-08 04:10:00,55.0,52.7,30.02,NNW,328,0.0,0.0,92,0.00,,,0.00,0,Wunderground v.1.15,2013-07-08 11:10:00,
2013-07-08 04:16:00,54.9,52.6,30.02,NNW,328,0.0,0.0,92,0.00,,,0.00,0,Wunderground v.1.15,2013-07-08 11:16:00,
2013-07-08 04:22:00,54.7,52.4,30.02,NNW,328,0.0,0.0,92,0.00,,,0.00,0,Wunderground v.1.15,2013-07-08 11:22:00,
2013-07-08 04:27:00,54.6,52.6,30.02,NNW,328,0.0,0.0,93,0.00,,,0.00,0,Wunderground v.1.15,2013-07-08 11:27:00,
2013-07-08 04:33:00,54.4,52.4,30.02,NNW,328,0.0,0.0,93,0.00,,,0.00,0,Wunderground v.1.15,2013-07-08 11:33:00,
2013-07-08 04:39:00,54.2,52.2,30.02,NNW,328,0.0,0.0,93,0.00,,,0.00,0,Wunderground v.1.15,2013-07-08 11:39:00,
2013-07-08 04:45:00,54.0,52.0,30.02,NNW,328,0.0,0.0,93,0.00,,,0.00,0,Wunderground v.1.15,2013-07-08 11:45:00,
2013-07-08 04:51:00,53.8,51.8,30.03,NNW,328,0.0,0.0,93,0.00,,,0.00,0,Wunderground v.1.15,2013-07-08 11:51:00,
2013-07-08 04:57:00,53.7,52.0,30.03,NNW,328,0.0,0.0,94,0.00,,,0.00,0,Wunderground v.1.15,2013-07-08 11:57:00,
2013-07-08 05:03:00,53.5,51.8,30.03,NNW,328,0.0,0.0,94,0.00,,,0.00,0,Wunderground v.1.15,2013-07-08 12:03:00,
2013-07-08 05:08:00,53.5,51.8,30.03,NNW,328,0.0,0.0,94,0.00,,,0.00,0,Wunderground v.1.15,2013-07-08 12:08:00,
2013-07-08 05:14:00,53.4,51.7,30.03,NNW,328,0.0,0.0,94,0.00,,,0.00,0,Wunderground v.1.15,2013-07-08 12:14:00,
2013-07-08 05:20:00,53.4,52.0,30.03,NNW,328,0.0,0.0,95,0.00,,,0.00,0,Wunderground v.1.15,2013-07-08 12:20:00,
2013-07-08 05:26:00,53.3,51.9,30.03,NNW,328,0.0,0.0,95,0.00,,,0.00,0,Wunderground v.1.15,2013-07-08 12:26:00,
2013-07-08 05:31:00,53.3,51.9,30.03,NNW,328,0.0,0.0,95,0.00,,,0.00,0,Wunderground v.1.15,2013-07-08 12:31:00,
2013-07-08 05:37:00,53.3,51.9,30.04,NNW,328,0.0,0.0,95,0.00,,,0.00,0,Wunderground v.1.15,2013-07-08 12:37:00,
2013-07-08 05:42:00,53.4,52.0,30.04,NNW,328,0.0,0.0,95,0.00,,,0.00,0,Wunderground v.1.15,2013-07-08 12:42:00,
2013-07-08 05:48:00,53.5,52.1,30.04,NNW,328,0.0,0.0,95,0.00,,,0.00,5,Wunderground v.1.15,2013-07-08 12:48:00,
2013-07-08 05:54:00,53.6,52.2,30.04,NNW,328,0.0,0.0,95,0.00,,,0.00,7,Wunderground v.1.15,2013-07-08 12:54:00,
2013-07-08 05:59:00,53.7,52.3,30.04,NNW,328,0.0,0.0,95,0.00,,,0.00,9,Wunderground v.1.15,2013-07-08 12:59:00,
2013-07-08 06:05:00,53.7,52.3,30.05,NNW,328,0.0,0.0,95,0.00,,,0.00,16,Wunderground v.1.15,2013-07-08 13:05:00,
2013-07-08 06:10:00,53.8,52.4,30.05,NNW,328,0.0,0.0,95,0.00,,,0.00,19,Wunderground v.1.15,2013-07-08 13:10:00,
2013-07-08 06:16:00,53.9,52.5,30.05,NNW,328,0.0,0.0,95,0.00,,,0.00,18,Wunderground v.1.15,2013-07-08 13:16:00,
2013-07-08 06:22:00,54.0,52.6,30.05,NNW,328,0.0,0.0,95,0.00,,,0.00,23,Wunderground v.1.15,2013-07-08 13:22:00,
2013-07-08 06:27:00,54.1,52.7,30.05,NNW,328,0.0,0.0,95,0.00,,,0.00,30,Wunderground v.1.15,2013-07-08 13:27:00,
2013-07-08 06:33:00,54.3,53.2,30.05,NNW,328,0.0,0.0,96,0.00,,,0.00,37,Wunderground v.1.15,2013-07-08 13:33:00,
2013-07-08 06:38:00,54.5,53.4,30.06,NNW,328,0.0,0.0,96,0.00,,,0.00,39,Wunderground v.1.15,2013-07-08 13:38:00,
2013-07-08 06:43:00,54.8,53.7,30.06,NNW,328,0.0,0.0,96,0.00,,,0.00,46,Wunderground v.1.15,2013-07-08 13:43:00,
2013-07-08 06:49:00,55.2,54.1,30.06,NNW,328,0.0,0.0,96,0.00,,,0.00,53,Wunderground v.1.15,2013-07-08 13:49:00,
2013-07-08 06:54:00,55.6,54.8,30.06,NNW,328,0.0,0.0,97,0.00,,,0.00,58,Wunderground v.1.15,2013-07-08 13:54:00,
2013-07-08 06:59:00,55.9,54.8,30.06,NNW,328,0.0,0.0,96,0.00,,,0.00,65,Wunderground v.1.15,2013-07-08 13:59:00,
2013-07-08 07:05:00,56.3,55.2,30.06,NNW,328,0.0,0.0,96,0.00,,,0.00,56,Wunderground v.1.15,2013-07-08 14:05:00,
2013-07-08 07:10:00,56.9,55.5,30.06,NNW,328,0.0,0.0,95,0.00,,,0.00,88,Wunderground v.1.15,2013-07-08 14:10:00,
2013-07-08 07:16:00,57.8,55.5,30.06,NNW,328,0.0,0.0,92,0.00,,,0.00,95,Wunderground v.1.15,2013-07-08 14:16:00,
2013-07-08 07:21:00,58.4,55.8,30.06,NNW,328,0.0,0.0,91,0.00,,,0.00,107,Wunderground v.1.15,2013-07-08 14:21:00,
2013-07-08 07:26:00,58.4,55.2,30.06,NNW,328,0.0,1.0,89,0.00,,,0.00,109,Wunderground v.1.15,2013-07-08 14:26:00,
2013-07-08 07:32:00,58.5,55.3,30.07,NNW,328,0.0,0.0,89,0.00,,,0.00,125,Wunderground v.1.15,2013-07-08 14:32:00,
2013-07-08 07:37:00,58.6,55.4,30.07,NNW,328,0.0,2.0,89,0.00,,,0.00,130,Wunderground v.1.15,2013-07-08 14:37:00,
2013-07-08 07:43:00,59.0,55.1,30.07,NNW,328,0.0,0.0,87,0.00,,,0.00,142,Wunderground v.1.15,2013-07-08 14:43:00,
2013-07-08 07:49:00,59.2,54.7,30.07,NNW,328,0.0,0.0,85,0.00,,,0.00,146,Wunderground v.1.15,2013-07-08 14:49:00,
2013-07-08 07:55:00,59.5,54.7,30.07,NNW,328,0.0,1.0,84,0.00,,,0.00,179,Wunderground v.1.15,2013-07-08 14:55:00,
2013-07-08 08:01:00,59.7,54.5,30.07,NW,318,0.0,0.0,83,0.00,,,0.00,165,Wunderground v.1.15,2013-07-08 15:01:00,
2013-07-08 08:06:00,59.9,54.4,30.07,North,5,1.0,2.0,82,0.00,,,0.00,223,Wunderground v.1.15,2013-07-08 15:06:00,
2013-07-08 08:12:00,60.4,54.5,30.07,NNW,336,1.0,3.0,81,0.00,,,0.00,383,Wunderground v.1.15,2013-07-08 15:12:00,
2013-07-08 08:18:00,61.1,55.6,30.07,NW,322,2.0,3.0,82,0.00,,,0.00,471,Wunderground v.1.15,2013-07-08 15:18:00,
2013-07-08 08:23:00,61.8,55.2,30.07,North,355,1.0,1.0,79,0.00,,,0.00,445,Wunderground v.1.15,2013-07-08 15:23:00,
2013-07-08 08:28:00,62.3,56.0,30.07,North,360,1.0,3.0,80,0.00,,,0.00,482,Wunderground v.1.15,2013-07-08 15:28:00,
2013-07-08 08:34:00,62.7,55.4,30.08,NNE,14,2.0,3.0,77,0.00,,,0.00,499,Wunderground v.1.15,2013-07-08 15:34:00,
2013-07-08 08:39:00,62.9,55.2,30.08,NNW,333,2.0,5.0,76,0.00,,,0.00,446,Wunderground v.1.15,2013-07-08 15:39:00,
2013-07-08 08:45:00,63.4,56.1,30.08,NNE,17,2.0,4.0,77,0.00,,,0.00,522,Wunderground v.1.15,2013-07-08 15:45:00,
2013-07-08 08:50:00,64.0,55.9,30.08,NNE,17,1.0,1.0,75,0.00,,,0.00,557,Wunderground v.1.15,2013-07-08 15:50:00,
2013-07-08 08:56:00,64.3,56.2,30.08,NNE,17,1.0,4.0,75,0.00,,,0.00,577,Wunderground v.1.15,2013-07-08 15:56:00,
2013-07-08 09:01:00,64.4,55.9,30.08,NNE,33,1.0,5.0,74,0.00,,,0.00,555,Wunderground v.1.15,2013-07-08 16:01:00,
2013-07-08 09:06:00,64.2,55.7,30.08,NNE,18,1.0,5.0,74,0.00,,,0.00,506,Wunderground v.1.15,2013-07-08 16:06:00,
2013-07-08 09:11:00,63.9,55.4,30.08,North,360,2.0,2.0,74,0.00,,,0.00,279,Wunderground v.1.15,2013-07-08 16:11:00,
2013-07-08 09:17:00,63.1,55.8,30.08,NNE,24,1.0,3.0,77,0.00,,,0.00,278,Wunderground v.1.15,2013-07-08 16:17:00,
2013-07-08 09:23:00,62.8,55.5,30.08,NNE,21,2.0,2.0,77,0.00,,,0.00,520,Wunderground v.1.15,2013-07-08 16:23:00,
2013-07-08 09:28:00,63.1,55.8,30.08,North,355,2.0,3.0,77,0.00,,,0.00,387,Wunderground v.1.15,2013-07-08 16:28:00,
2013-07-08 09:33:00,63.0,55.3,30.09,NNE,15,2.0,3.0,76,0.00,,,0.00,357,Wunderground v.1.15,2013-07-08 16:33:00,
2013-07-08 09:38:00,62.8,55.5,30.09,NNE,16,2.0,4.0,77,0.00,,,0.00,547,Wunderground v.1.15,2013-07-08 16:38:00,
2013-07-08 09:43:00,63.2,56.2,30.09,NNE,15,2.0,2.0,78,0.00,,,0.00,657,Wunderground v.1.15,2013-07-08 16:43:00,
2013-07-08 09:49:00,63.3,56.3,30.09,NNE,23,2.0,5.0,78,0.00,,,0.00,691,Wunderground v.1.15,2013-07-08 16:49:00,
2013-07-08 09:54:00,63.3,55.6,30.09,NNE,23,2.0,2.0,76,0.00,,,0.00,687,Wunderground v.1.15,2013-07-08 16:54:00,
2013-07-08 09:59:00,63.3,56.3,30.08,NE,44,2.0,2.0,78,0.00,,,0.00,668,Wunderground v.1.15,2013-07-08 16:59:00,
2013-07-08 10:05:00,63.4,55.7,30.09,NNE,28,2.0,8.0,76,0.00,,,0.00,691,Wunderground v.1.15,2013-07-08 17:05:00,
2013-07-08 10:10:00,63.6,56.6,30.09,NNW,339,2.0,3.0,78,0.00,,,0.00,698,Wunderground v.1.15,2013-07-08 17:10:00,
2013-07-08 10:16:00,64.1,56.4,30.08,NNE,13,2.0,3.0,76,0.00,,,0.00,712,Wunderground v.1.15,2013-07-08 17:16:00,
2013-07-08 10:21:00,64.2,56.1,30.08,North,360,1.0,1.0,75,0.00,,,0.00,724,Wunderground v.1.15,2013-07-08 17:21:00,
2013-07-08 10:27:00,64.9,57.2,30.08,North,360,1.0,2.0,76,0.00,,,0.00,737,Wunderground v.1.15,2013-07-08 17:27:00,
2013-07-08 10:32:00,65.2,57.1,30.08,NNE,18,1.0,3.0,75,0.00,,,0.00,744,Wunderground v.1.15,2013-07-08 17:32:00,
2013-07-08 10:37:00,65.7,57.2,30.08,NNE,30,2.0,6.0,74,0.00,,,0.00,758,Wunderground v.1.15,2013-07-08 17:37:00,
2013-07-08 10:43:00,66.3,57.4,30.08,NNE,24,1.0,2.0,73,0.00,,,0.00,770,Wunderground v.1.15,2013-07-08 17:43:00,
2013-07-08 10:49:00,66.8,57.5,30.08,NE,42,1.0,2.0,72,0.00,,,0.00,780,Wunderground v.1.15,2013-07-08 17:49:00,
2013-07-08 10:54:00,67.0,57.7,30.08,NNE,29,1.0,3.0,72,0.00,,,0.00,795,Wunderground v.1.15,2013-07-08 17:54:00,
2013-07-08 10:59:00,67.1,57.8,30.08,NNE,20,2.0,3.0,72,0.00,,,0.00,802,Wunderground v.1.15,2013-07-08 17:59:00,
2013-07-08 11:05:00,67.2,57.9,30.08,North,360,2.0,7.0,72,0.00,,,0.00,812,Wunderground v.1.15,2013-07-08 18:05:00,
2013-07-08 11:10:00,67.8,58.4,30.08,North,5,1.0,3.0,72,0.00,,,0.00,824,Wunderground v.1.15,2013-07-08 18:10:00,
2013-07-08 11:16:00,68.0,57.8,30.08,NNE,32,2.0,5.0,70,0.00,,,0.00,833,Wunderground v.1.15,2013-07-08 18:16:00,
2013-07-08 11:23:00,67.6,57.9,30.08,NNW,344,2.0,5.0,71,0.00,,,0.00,844,Wunderground v.1.15,2013-07-08 18:23:00,
2013-07-08 11:28:00,67.8,57.7,30.08,NE,46,2.0,5.0,70,0.00,,,0.00,853,Wunderground v.1.15,2013-07-08 18:28:00,
2013-07-08 11:33:00,68.0,57.8,30.08,NNE,17,2.0,3.0,70,0.00,,,0.00,860,Wunderground v.1.15,2013-07-08 18:33:00,
2013-07-08 11:40:00,68.3,58.1,30.08,NNE,27,2.0,2.0,70,0.00,,,0.00,872,Wunderground v.1.15,2013-07-08 18:40:00,
2013-07-08 11:46:00,69.1,58.5,30.08,NNE,19,2.0,2.0,69,0.00,,,0.00,877,Wunderground v.1.15,2013-07-08 18:46:00,
2013-07-08 11:51:00,69.1,58.9,30.08,NNE,28,1.0,2.0,70,0.00,,,0.00,884,Wunderground v.1.15,2013-07-08 18:51:00,
2013-07-08 11:57:00,69.2,59.0,30.08,NE,38,1.0,3.0,70,0.00,,,0.00,893,Wunderground v.1.15,2013-07-08 18:57:00,
2013-07-08 12:02:00,69.5,59.3,30.08,North,11,2.0,10.0,70,0.00,,,0.00,902,Wunderground v.1.15,2013-07-08 19:02:00,
2013-07-08 12:07:00,69.9,58.9,30.07,NNE,17,2.0,10.0,68,0.00,,,0.00,905,Wunderground v.1.15,2013-07-08 19:07:00,
2013-07-08 12:13:00,70.5,59.4,30.07,NNE,14,2.0,3.0,68,0.00,,,0.00,912,Wunderground v.1.15,2013-07-08 19:13:00,
2013-07-08 12:19:00,70.8,58.4,30.07,NNE,15,2.0,4.0,65,0.00,,,0.00,914,Wunderground v.1.15,2013-07-08 19:19:00,
2013-07-08 12:25:00,70.8,59.7,30.07,NNE,13,2.0,5.0,68,0.00,,,0.00,926,Wunderground v.1.15,2013-07-08 19:25:00,
2013-07-08 12:31:00,71.2,58.8,30.07,NNW,340,2.0,2.0,65,0.00,,,0.00,930,Wunderground v.1.15,2013-07-08 19:31:00,
2013-07-08 12:36:00,71.5,58.7,30.07,NNE,25,2.0,3.0,64,0.00,,,0.00,930,Wunderground v.1.15,2013-07-08 19:36:00,
2013-07-08 12:41:00,71.5,58.7,30.07,NNE,21,3.0,3.0,64,0.00,,,0.00,933,Wunderground v.1.15,2013-07-08 19:41:00,
2013-07-08 12:47:00,71.9,59.5,30.07,NNE,18,2.0,4.0,65,0.00,,,0.00,937,Wunderground v.1.15,2013-07-08 19:47:00,
2013-07-08 12:53:00,72.6,59.3,30.07,NE,44,2.0,2.0,63,0.00,,,0.00,940,Wunderground v.1.15,2013-07-08 19:53:00,
2013-07-08 12:58:00,73.0,60.1,30.06,NNE,22,1.0,5.0,64,0.00,,,0.00,947,Wunderground v.1.15,2013-07-08 19:58:00,
2013-07-08 13:08:00,73.5,58.8,30.06,NNE,32,2.0,8.0,60,0.00,,,0.00,953,Wunderground v.1.15,2013-07-08 20:08:00,
2013-07-08 13:15:00,73.3,59.0,30.06,NE,42,2.0,4.0,61,0.00,,,0.00,951,Wunderground v.1.15,2013-07-08 20:15:00,
2013-07-08 13:21:00,73.1,57.4,30.06,NNE,13,2.0,2.0,58,0.00,,,0.00,947,Wunderground v.1.15,2013-07-08 20:21:00,
2013-07-08 13:26:00,73.8,58.6,30.06,NE,52,2.0,4.0,59,0.00,,,0.00,951,Wunderground v.1.15,2013-07-08 20:26:00,
2013-07-08 13:32:00,74.6,57.4,30.06,North,355,2.0,4.0,55,0.00,,,0.00,951,Wunderground v.1.15,2013-07-08 20:32:00,
2013-07-08 13:38:00,75.3,58.5,30.05,North,5,2.0,4.0,56,0.00,,,0.00,951,Wunderground v.1.15,2013-07-08 20:38:00,
2013-07-08 13:43:00,75.5,57.2,30.05,NNE,22,1.0,4.0,53,0.00,,,0.00,949,Wunderground v.1.15,2013-07-08 20:43:00,
2013-07-08 13:49:00,75.6,57.3,30.05,North,5,2.0,4.0,53,0.00,,,0.00,947,Wunderground v.1.15,2013-07-08 20:49:00,
2013-07-08 13:55:00,75.8,57.4,30.05,NE,34,2.0,4.0,53,0.00,,,0.00,951,Wunderground v.1.15,2013-07-08 20:55:00,
2013-07-08 14:02:00,75.7,56.8,30.05,NNE,27,2.0,9.0,52,0.00,,,0.00,944,Wunderground v.1.15,2013-07-08 21:02:00,
2013-07-08 14:07:00,75.7,57.4,30.05,NE,34,2.0,9.0,53,0.00,,,0.00,937,Wunderground v.1.15,2013-07-08 21:07:00,
2013-07-08 14:13:00,76.1,56.7,30.05,NNE,19,2.0,3.0,51,0.00,,,0.00,933,Wunderground v.1.15,2013-07-08 21:13:00,
2013-07-08 14:18:00,76.3,56.8,30.05,NNE,19,2.0,4.0,51,0.00,,,0.00,926,Wunderground v.1.15,2013-07-08 21:18:00,
2013-07-08 14:26:00,76.9,56.3,30.05,NE,43,1.0,2.0,49,0.00,,,0.00,923,Wunderground v.1.15,2013-07-08 21:26:00,
2013-07-08 14:31:00,77.4,56.2,30.04,NNE,30,1.0,5.0,48,0.00,,,0.00,916,Wunderground v.1.15,2013-07-08 21:31:00,
2013-07-08 14:37:00,77.4,55.6,30.05,NNE,30,2.0,5.0,47,0.00,,,0.00,909,Wunderground v.1.15,2013-07-08 21:37:00,
2013-07-08 14:42:00,77.3,54.3,30.04,North,11,2.0,4.0,45,0.00,,,0.00,905,Wunderground v.1.15,2013-07-08 21:42:00,
2013-07-08 14:48:00,77.2,53.6,30.04,North,11,2.0,4.0,44,0.00,,,0.00,896,Wunderground v.1.15,2013-07-08 21:48:00,
2013-07-08 14:54:00,77.5,55.1,30.04,NNE,17,2.0,6.0,46,0.00,,,0.00,891,Wunderground v.1.15,2013-07-08 21:54:00,
2013-07-08 15:04:00,78.4,56.5,30.04,North,355,1.0,9.0,47,0.00,,,0.00,879,Wunderground v.1.15,2013-07-08 22:04:00,
2013-07-08 15:10:00,78.9,54.5,30.04,NNE,17,2.0,2.0,43,0.00,,,0.00,868,Wunderground v.1.15,2013-07-08 22:10:00,
2013-07-08 15:17:00,79.0,53.3,30.03,NE,38,2.0,3.0,41,0.00,,,0.00,858,Wunderground v.1.15,2013-07-08 22:17:00,
2013-07-08 15:22:00,79.2,54.8,30.03,North,360,2.0,5.0,43,0.00,,,0.00,849,Wunderground v.1.15,2013-07-08 22:22:00,
2013-07-08 15:28:00,79.1,54.0,30.03,NNE,28,3.0,5.0,42,0.00,,,0.00,837,Wunderground v.1.15,2013-07-08 22:28:00,
2013-07-08 15:34:00,78.8,53.8,30.03,North,10,2.0,10.0,42,0.00,,,0.00,826,Wunderground v.1.15,2013-07-08 22:34:00,
2013-07-08 15:39:00,78.8,54.4,30.03,NNE,26,2.0,10.0,43,0.00,,,0.00,817,Wunderground v.1.15,2013-07-08 22:39:00,
2013-07-08 15:45:00,78.7,55.0,30.03,NNE,12,2.0,5.0,44,0.00,,,0.00,807,Wunderground v.1.15,2013-07-08 22:45:00,
2013-07-08 15:51:00,79.1,53.4,30.03,NE,49,2.0,2.0,41,0.00,,,0.00,795,Wunderground v.1.15,2013-07-08 22:51:00,
2013-07-08 15:56:00,79.1,52.7,30.02,North,355,2.0,7.0,40,0.00,,,0.00,784,Wunderground v.1.15,2013-07-08 22:56:00,
2013-07-08 16:01:00,79.0,53.9,30.02,NNE,27,2.0,3.0,42,0.00,,,0.00,258,Wunderground v.1.15,2013-07-08 23:01:00,
2013-07-08 16:06:00,79.0,53.9,30.02,NNE,30,3.0,10.0,42,0.00,,,0.00,165,Wunderground v.1.15,2013-07-08 23:06:00,
2013-07-08 16:12:00,79.0,53.9,30.02,North,9,3.0,3.0,42,0.00,,,0.00,179,Wunderground v.1.15,2013-07-08 23:12:00,
2013-07-08 16:17:00,79.2,52.1,30.02,NNE,23,3.0,3.0,39,0.00,,,0.00,179,Wunderground v.1.15,2013-07-08 23:17:00,
2013-07-08 16:24:00,79.5,53.1,30.02,NNE,12,2.0,3.0,40,0.00,,,0.00,62,Wunderground v.1.15,2013-07-08 23:24:00,
2013-07-08 16:29:00,79.4,54.3,30.02,NE,44,2.0,4.0,42,0.00,,,0.00,74,Wunderground v.1.15,2013-07-08 23:29:00,
2013-07-08 16:35:00,79.4,54.3,30.02,NNE,19,2.0,3.0,42,0.00,,,0.00,60,Wunderground v.1.15,2013-07-08 23:35:00,
2013-07-08 16:42:00,79.3,54.2,30.01,North,5,2.0,2.0,42,0.00,,,0.00,54,Wunderground v.1.15,2013-07-08 23:42:00,
2013-07-08 16:49:00,79.3,52.9,30.01,NNE,15,2.0,8.0,40,0.00,,,0.00,67,Wunderground v.1.15,2013-07-08 23:49:00,
2013-07-08 16:55:00,79.2,53.5,30.01,NNE,28,3.0,3.0,41,0.00,,,0.00,105,Wunderground v.1.15,2013-07-08 23:55:00,
2013-07-08 17:01:00,79.3,54.2,30.01,NNE,33,2.0,3.0,42,0.00,,,0.00,62,Wunderground v.1.15,2013-07-09 00:01:00,
2013-07-08 17:07:00,79.3,54.2,30.01,North,10,2.0,10.0,42,0.00,,,0.00,42,Wunderground v.1.15,2013-07-09 00:07:00,
2013-07-08 17:12:00,79.3,55.5,30.01,NNE,13,2.0,2.0,44,0.00,,,0.00,42,Wunderground v.1.15,2013-07-09 00:12:00,
2013-07-08 17:18:00,79.3,54.9,30.01,North,350,2.0,4.0,43,0.00,,,0.00,42,Wunderground v.1.15,2013-07-09 00:18:00,
2013-07-08 17:24:00,79.2,54.8,30.01,WNW,303,2.0,4.0,43,0.00,,,0.00,42,Wunderground v.1.15,2013-07-09 00:24:00,
2013-07-08 17:29:00,79.3,54.9,30.01,NNW,346,1.0,4.0,43,0.00,,,0.00,46,Wunderground v.1.15,2013-07-09 00:29:00,
2013-07-08 17:37:00,79.2,55.4,30.01,North,5,1.0,1.0,44,0.00,,,0.00,39,Wunderground v.1.15,2013-07-09 00:37:00,
2013-07-08 17:42:00,79.1,54.7,30.01,North,355,1.0,6.0,43,0.00,,,0.00,39,Wunderground v.1.15,2013-07-09 00:42:00,
2013-07-08 17:48:00,78.9,54.5,30.00,NNE,26,2.0,6.0,43,0.00,,,0.00,37,Wunderground v.1.15,2013-07-09 00:48:00,
2013-07-08 17:54:00,78.7,55.6,30.00,North,360,1.0,3.0,45,0.00,,,0.00,42,Wunderground v.1.15,2013-07-09 00:54:00,
2013-07-08 17:59:00,78.5,56.0,30.00,North,355,2.0,3.0,46,0.00,,,0.00,39,Wunderground v.1.15,2013-07-09 00:59:00,
2013-07-08 18:05:00,78.2,54.5,30.00,NNW,328,2.0,9.0,44,0.00,,,0.00,37,Wunderground v.1.15,2013-07-09 01:05:00,
2013-07-08 18:15:00,78.0,54.3,30.00,NE,41,2.0,6.0,44,0.00,,,0.00,35,Wunderground v.1.15,2013-07-09 01:15:00,
2013-07-08 18:21:00,78.0,54.3,30.00,NNE,20,2.0,4.0,44,0.00,,,0.00,35,Wunderground v.1.15,2013-07-09 01:21:00,
2013-07-08 18:27:00,77.9,54.2,30.00,North,355,2.0,6.0,44,0.00,,,0.00,197,Wunderground v.1.15,2013-07-09 01:27:00,
2013-07-08 18:34:00,77.5,55.1,30.00,NNE,22,1.0,2.0,46,0.00,,,0.00,32,Wunderground v.1.15,2013-07-09 01:34:00,
2013-07-08 18:40:00,77.2,55.4,30.00,North,5,2.0,2.0,47,0.00,,,0.00,28,Wunderground v.1.15,2013-07-09 01:40:00,
2013-07-08 18:46:00,76.9,55.1,30.00,North,5,1.0,2.0,47,0.00,,,0.00,26,Wunderground v.1.15,2013-07-09 01:46:00,
2013-07-08 18:52:00,76.9,55.1,30.00,North,360,1.0,4.0,47,0.00,,,0.00,25,Wunderground v.1.15,2013-07-09 01:52:00,
2013-07-08 18:57:00,76.9,55.7,30.00,NNE,20,2.0,4.0,48,0.00,,,0.00,23,Wunderground v.1.15,2013-07-09 01:57:00,
2013-07-08 19:03:00,76.6,56.0,30.00,NNE,15,2.0,9.0,49,0.00,,,0.00,21,Wunderground v.1.15,2013-07-09 02:03:00,
2013-07-08 19:08:00,76.1,56.1,30.00,NNE,20,1.0,9.0,50,0.00,,,0.00,21,Wunderground v.1.15,2013-07-09 02:08:00,
2013-07-08 19:13:00,75.9,55.9,30.00,North,5,2.0,3.0,50,0.00,,,0.00,19,Wunderground v.1.15,2013-07-09 02:13:00,
2013-07-08 19:18:00,75.6,55.6,30.00,North,5,2.0,3.0,50,0.00,,,0.00,19,Wunderground v.1.15,2013-07-09 02:18:00,
2013-07-08 19:24:00,75.3,55.4,30.00,NNW,342,2.0,2.0,50,0.00,,,0.00,19,Wunderground v.1.15,2013-07-09 02:24:00,
2013-07-08 19:30:00,75.2,55.3,30.00,North,9,1.0,2.0,50,0.00,,,0.00,18,Wunderground v.1.15,2013-07-09 02:30:00,
2013-07-08 19:36:00,75.1,55.2,30.00,NE,39,2.0,5.0,50,0.00,,,0.00,18,Wunderground v.1.15,2013-07-09 02:36:00,
2013-07-08 19:41:00,74.9,55.6,30.00,North,5,2.0,2.0,51,0.00,,,0.00,18,Wunderground v.1.15,2013-07-09 02:41:00,
2013-07-08 19:46:00,74.8,54.9,30.01,NNE,14,2.0,3.0,50,0.00,,,0.00,16,Wunderground v.1.15,2013-07-09 02:46:00,
2013-07-08 19:52:00,74.5,54.1,30.00,NNE,21,2.0,3.0,49,0.00,,,0.00,16,Wunderground v.1.15,2013-07-09 02:52:00,
2013-07-08 19:57:00,74.3,53.3,30.00,NNE,15,2.0,3.0,48,0.00,,,0.00,16,Wunderground v.1.15,2013-07-09 02:57:00,
2013-07-08 20:03:00,74.4,54.5,30.00,North,5,2.0,5.0,50,0.00,,,0.00,14,Wunderground v.1.15,2013-07-09 03:03:00,
2013-07-08 20:08:00,74.0,54.2,30.01,North,5,2.0,5.0,50,0.00,,,0.00,14,Wunderground v.1.15,2013-07-09 03:08:00,
2013-07-08 20:13:00,73.9,53.5,30.01,NNE,12,2.0,2.0,49,0.00,,,0.00,12,Wunderground v.1.15,2013-07-09 03:13:00,
2013-07-08 20:19:00,73.9,54.1,30.00,NE,44,2.0,4.0,50,0.00,,,0.00,12,Wunderground v.1.15,2013-07-09 03:19:00,
2013-07-08 20:24:00,74.1,54.3,30.00,North,11,2.0,3.0,50,0.00,,,0.00,11,Wunderground v.1.15,2013-07-09 03:24:00,
2013-07-08 20:32:00,74.1,54.8,30.00,NNE,15,2.0,5.0,51,0.00,,,0.00,9,Wunderground v.1.15,2013-07-09 03:32:00,
2013-07-08 20:38:00,74.1,54.8,30.01,North,355,2.0,5.0,51,0.00,,,0.00,7,Wunderground v.1.15,2013-07-09 03:38:00,
2013-07-08 20:43:00,74.2,54.9,30.01,North,5,2.0,2.0,51,0.00,,,0.00,7,Wunderground v.1.15,2013-07-09 03:43:00,
2013-07-08 20:50:00,74.4,55.1,30.01,NNE,15,3.0,3.0,51,0.00,,,0.00,5,Wunderground v.1.15,2013-07-09 03:50:00,
2013-07-08 20:57:00,74.5,55.7,30.01,NE,39,3.0,4.0,52,0.00,,,0.00,0,Wunderground v.1.15,2013-07-09 03:57:00,
2013-07-08 21:01:00,74.3,55.0,30.01,NE,44,3.0,6.0,51,0.00,,,0.00,0,Wunderground v.1.15,2013-07-09 04:01:00,
2013-07-08 21:02:00,74.2,55.4,30.01,North,5,3.0,6.0,52,0.00,,,0.00,0,Wunderground v.1.15,2013-07-09 04:02:00,
2013-07-08 21:05:00,74.1,55.3,30.01,North,5,3.0,6.0,52,0.00,,,0.00,0,Wunderground v.1.15,2013-07-09 04:05:00,
2013-07-08 21:06:00,74.1,55.3,30.01,North,5,3.0,6.0,52,0.00,,,0.00,0,Wunderground v.1.15,2013-07-09 04:06:00,
2013-07-08 21:11:00,73.7,55.5,30.01,North,351,2.0,2.0,53,0.00,,,0.00,0,Wunderground v.1.15,2013-07-09 04:11:00,
2013-07-08 21:17:00,73.5,55.3,30.01,NE,34,2.0,3.0,53,0.00,,,0.00,0,Wunderground v.1.15,2013-07-09 04:17:00,
2013-07-08 21:18:00,73.5,55.3,30.01,NE,34,2.0,3.0,53,0.00,,,0.00,0,Wunderground v.1.15,2013-07-09 04:18:00,
2013-07-08 21:23:00,73.4,55.2,30.01,North,355,2.0,2.0,53,0.00,,,0.00,0,Wunderground v.1.15,2013-07-09 04:23:00,
2013-07-08 21:29:00,73.3,55.6,30.01,NNE,26,2.0,3.0,54,0.00,,,0.00,0,Wunderground v.1.15,2013-07-09 04:29:00,
2013-07-08 21:34:00,73.1,55.5,30.02,NNW,333,2.0,2.0,54,0.00,,,0.00,0,Wunderground v.1.15,2013-07-09 04:34:00,
2013-07-08 21:40:00,73.0,55.9,30.02,North,360,2.0,2.0,55,0.00,,,0.00,0,Wunderground v.1.15,2013-07-09 04:40:00,
2013-07-08 21:45:00,73.0,55.9,30.02,NNW,347,2.0,2.0,55,0.00,,,0.00,0,Wunderground v.1.15,2013-07-09 04:45:00,
2013-07-08 21:50:00,72.8,56.2,30.02,NNW,342,2.0,3.0,56,0.00,,,0.00,0,Wunderground v.1.15,2013-07-09 04:50:00,
2013-07-08 21:55:00,72.7,56.1,30.02,North,10,2.0,5.0,56,0.00,,,0.00,0,Wunderground v.1.15,2013-07-09 04:55:00,
2013-07-08 22:00:00,72.7,56.6,30.03,NNE,28,2.0,2.0,57,0.00,,,0.00,0,Wunderground v.1.15,2013-07-09 05:00:00,
2013-07-08 22:06:00,72.4,56.3,30.03,NNE,15,2.0,10.0,57,0.00,,,0.00,0,Wunderground v.1.15,2013-07-09 05:06:00,
2013-07-08 22:11:00,72.4,56.3,30.03,NNW,333,2.0,2.0,57,0.00,,,0.00,0,Wunderground v.1.15,2013-07-09 05:11:00,
2013-07-08 22:16:00,72.4,56.8,30.03,NW,313,3.0,6.0,58,0.00,,,0.00,0,Wunderground v.1.15,2013-07-09 05:16:00,
2013-07-08 22:21:00,72.3,56.7,30.03,North,5,3.0,3.0,58,0.00,,,0.00,0,Wunderground v.1.15,2013-07-09 05:21:00,
2013-07-08 22:27:00,72.2,56.6,30.03,NNW,331,2.0,4.0,58,0.00,,,0.00,0,Wunderground v.1.15,2013-07-09 05:27:00,
2013-07-08 22:32:00,71.9,56.8,30.03,NNE,15,2.0,5.0,59,0.00,,,0.00,0,Wunderground v.1.15,2013-07-09 05:32:00,
2013-07-08 22:38:00,71.7,56.6,30.03,NNE,14,3.0,5.0,59,0.00,,,0.00,0,Wunderground v.1.15,2013-07-09 05:38:00,
2013-07-08 22:44:00,71.5,56.9,30.04,NNW,348,2.0,5.0,60,0.00,,,0.00,0,Wunderground v.1.15,2013-07-09 05:44:00,
2013-07-08 22:50:00,71.3,57.2,30.04,North,5,2.0,2.0,61,0.00,,,0.00,0,Wunderground v.1.15,2013-07-09 05:50:00,
2013-07-08 22:56:00,71.3,57.2,30.04,North,5,2.0,3.0,61,0.00,,,0.00,0,Wunderground v.1.15,2013-07-09 05:56:00,
2013-07-08 23:01:00,71.3,57.2,30.04,North,5,3.0,7.0,61,0.00,,,0.00,0,Wunderground v.1.15,2013-07-09 06:01:00,
2013-07-08 23:07:00,71.2,57.1,30.04,NNW,348,3.0,7.0,61,0.00,,,0.00,0,Wunderground v.1.15,2013-07-09 06:07:00,
2013-07-08 23:12:00,71.0,57.3,30.04,NNE,15,2.0,3.0,62,0.00,,,0.00,0,Wunderground v.1.15,2013-07-09 06:12:00,
2013-07-08 23:17:00,70.8,57.1,30.04,North,5,2.0,6.0,62,0.00,,,0.00,0,Wunderground v.1.15,2013-07-09 06:17:00,
2013-07-08 23:22:00,70.7,57.5,30.04,NNW,332,2.0,3.0,63,0.00,,,0.00,0,Wunderground v.1.15,2013-07-09 06:22:00,
2013-07-08 23:28:00,70.5,57.3,30.04,North,360,3.0,5.0,63,0.00,,,0.00,0,Wunderground v.1.15,2013-07-09 06:28:00,
2013-07-08 23:33:00,70.4,57.2,30.04,NNE,15,3.0,3.0,63,0.00,,,0.00,0,Wunderground v.1.15,2013-07-09 06:33:00,
2013-07-08 23:39:00,70.3,57.5,30.04,NNW,343,3.0,9.0,64,0.00,,,0.00,0,Wunderground v.1.15,2013-07-09 06:39:00,
2013-07-08 23:45:00,70.2,57.4,30.04,NNE,20,3.0,8.0,64,0.00,,,0.00,0,Wunderground v.1.15,2013-07-09 06:45:00,
2013-07-08 23:50:00,70.1,57.4,30.04,North,9,3.0,5.0,64,0.00,,,0.00,0,Wunderground v.1.15,2013-07-09 06:50:00,
2013-07-08 23:55:00,70.0,57.7,30.04,North,10,3.0,5.0,65,0.00,,,0.00,0,Wunderground v.1.15,2013-07-09 06:55:00,